createdAt,value
2019-04-16T00:02:18.877Z,17.35
2019-04-16T00:05:08.357Z,17.95
2019-04-16T00:07:55.403Z,18.98
2019-04-16T00:10:42.900Z,18.87
2019-04-16T00:13:30.678Z,16.90
2019-04-16T00:16:01.355Z,11.10
2019-04-16T00:18:31.373Z,19.45
2019-04-16T00:21:19.146Z,19.80
2019-04-16T00:24:18.229Z,22.77
2019-04-16T00:26:46.075Z,18.20
2019-04-16T00:29:16.093Z,20.08
2019-04-16T00:32:07.846Z,18.75
2019-04-16T00:34:36.577Z,19.27
2019-04-16T00:37:06.544Z,18.10
2019-04-16T00:39:36.546Z,19.05
2019-04-16T00:42:06.593Z,20.80
2019-04-16T00:44:36.852Z,18.25
2019-04-16T00:47:07.116Z,18.42
2019-04-16T00:49:37.993Z,19.60
2019-04-16T00:52:08.333Z,18.30
2019-04-16T00:54:39.278Z,21.20
2019-04-16T00:57:12.279Z,19.23
2019-04-16T00:59:42.316Z,23.25
2019-04-16T01:02:12.394Z,18.82
2019-04-16T01:04:42.413Z,19.20
2019-04-16T01:07:12.425Z,15.58
2019-04-16T01:09:42.441Z,18.45
2019-04-16T01:12:12.454Z,20.50
2019-04-16T01:14:42.743Z,22.17
2019-04-16T01:17:12.686Z,18.45
2019-04-16T01:19:42.712Z,16.82
2019-04-16T01:22:15.766Z,24.30
2019-04-16T01:24:44.297Z,19.10
2019-04-16T01:27:14.288Z,20.20
2019-04-16T01:29:44.264Z,18.37
2019-04-16T01:32:32.004Z,20.48
2019-04-16T01:35:33.337Z,15.23
2019-04-16T01:38:40.348Z,20.72
2019-04-16T01:41:12.729Z,18.52
2019-04-16T01:43:42.639Z,19.37
2019-04-16T01:46:12.649Z,20.00
2019-04-16T01:48:42.744Z,16.93
2019-04-16T01:51:15.445Z,21.27
2019-04-16T01:53:44.454Z,19.57
2019-04-16T01:56:14.526Z,21.97
2019-04-16T01:58:44.517Z,19.02
2019-04-16T02:01:14.571Z,20.30
2019-04-16T02:03:48.648Z,20.40
2019-04-16T02:06:16.240Z,20.17
2019-04-16T02:08:46.187Z,17.98
2019-04-16T02:11:16.179Z,17.85
2019-04-16T02:13:46.968Z,18.92
2019-04-16T02:16:17.022Z,19.32
2019-04-16T02:18:47.007Z,18.65
2019-04-16T02:21:16.992Z,17.37
2019-04-16T02:23:48.121Z,18.85
2019-04-16T02:26:20.656Z,20.15
2019-04-16T02:28:50.251Z,21.57
2019-04-16T02:31:20.212Z,21.33
2019-04-16T02:33:50.239Z,22.58
2019-04-16T02:36:20.548Z,18.30
2019-04-16T02:38:53.418Z,20.55
2019-04-16T02:41:23.305Z,17.50
2019-04-16T02:43:54.102Z,19.67
2019-04-16T02:46:30.782Z,18.62
2019-04-16T02:48:55.770Z,18.87
2019-04-16T02:51:44.596Z,18.00
2019-04-16T02:54:32.285Z,22.17
2019-04-16T02:57:25.737Z,23.27
2019-04-16T02:59:54.109Z,20.00
2019-04-16T03:02:54.005Z,17.23
2019-04-16T03:05:39.142Z,18.62
2019-04-16T03:08:09.064Z,18.45
2019-04-16T03:10:41.897Z,23.30
2019-04-16T03:13:10.772Z,19.42
2019-04-16T03:16:06.536Z,20.23
2019-04-16T03:18:46.891Z,18.23
2019-04-16T03:21:14.199Z,20.10
2019-04-16T03:23:46.604Z,17.95
2019-04-16T03:26:18.083Z,17.67
2019-04-16T03:28:48.251Z,18.82
2019-04-16T03:31:22.237Z,15.63
2019-04-16T03:33:50.977Z,24.18
2019-04-16T03:36:21.194Z,18.05
2019-04-16T03:38:51.175Z,20.23
2019-04-16T03:41:21.164Z,18.32
2019-04-16T03:43:51.163Z,20.23
2019-04-16T03:46:21.157Z,18.20
2019-04-16T03:48:52.634Z,20.65
2019-04-16T03:51:22.860Z,19.62
2019-04-16T03:53:52.824Z,20.05
2019-04-16T03:56:22.840Z,17.07
2019-04-16T03:58:52.832Z,21.05
2019-04-16T04:01:22.905Z,18.27
2019-04-16T04:03:57.073Z,17.67
2019-04-16T04:06:24.522Z,19.75
2019-04-16T04:08:54.571Z,18.42
2019-04-16T04:11:24.585Z,23.32
2019-04-16T04:13:54.578Z,20.35
2019-04-16T04:16:24.790Z,19.42
2019-04-16T04:18:54.904Z,18.67
2019-04-16T04:21:24.925Z,19.25
2019-04-16T04:23:59.705Z,21.93
2019-04-16T04:26:26.587Z,17.57
2019-04-16T04:28:56.633Z,21.07
2019-04-16T04:31:26.715Z,17.92
2019-04-16T04:33:58.327Z,18.70
2019-04-16T04:36:28.504Z,17.65
2019-04-16T04:38:58.833Z,18.45
2019-04-16T04:41:28.957Z,18.92
2019-04-16T04:44:03.885Z,19.35
2019-04-16T04:46:30.674Z,19.55
2019-04-16T04:49:00.700Z,20.08
2019-04-16T04:51:30.708Z,18.17
2019-04-16T04:54:00.751Z,17.02
2019-04-16T04:56:30.736Z,17.42
2019-04-16T04:59:02.530Z,20.17
2019-04-16T05:01:32.345Z,18.12
2019-04-16T05:04:24.028Z,16.57
2019-04-16T05:06:57.321Z,18.42
2019-04-16T05:09:29.411Z,17.65
2019-04-16T05:11:58.834Z,19.57
2019-04-16T05:14:28.855Z,16.73
2019-04-16T05:16:58.879Z,18.07
2019-04-16T05:19:28.897Z,19.45
2019-04-16T05:21:58.981Z,18.37
2019-04-16T05:24:29.900Z,19.02
2019-04-16T05:27:00.041Z,20.57
2019-04-16T05:29:30.052Z,18.82
2019-04-16T05:32:00.079Z,19.95
2019-04-16T05:34:30.082Z,19.23
2019-04-16T05:37:00.102Z,17.82
2019-04-16T05:39:30.089Z,19.40
2019-04-16T05:42:00.138Z,16.77
2019-04-16T05:44:33.060Z,20.52
2019-04-16T05:47:01.763Z,18.15
2019-04-16T05:49:34.552Z,17.60
2019-04-16T05:52:07.678Z,18.90
2019-04-16T05:55:01.417Z,18.05
2019-04-16T05:57:33.858Z,19.48
2019-04-16T06:00:09.322Z,19.70
2019-04-16T06:02:39.958Z,15.60
2019-04-16T06:05:09.913Z,16.37
2019-04-16T06:07:39.892Z,17.42
2019-04-16T06:10:10.294Z,20.43
2019-04-16T06:13:00.921Z,18.98
2019-04-16T06:15:53.931Z,17.85
2019-04-16T06:18:41.688Z,16.77
2019-04-16T06:21:25.614Z,20.20
2019-04-16T06:24:09.279Z,17.05
2019-04-16T06:26:51.418Z,16.70
2019-04-16T06:29:52.483Z,17.52
2019-04-16T06:32:34.200Z,18.10
2019-04-16T06:35:23.075Z,16.95
2019-04-16T06:38:15.560Z,17.00
2019-04-16T06:41:04.079Z,17.25
2019-04-16T06:43:40.308Z,17.02
2019-04-16T06:46:27.844Z,19.60
2019-04-16T06:49:29.049Z,13.40
2019-04-16T06:52:33.191Z,15.93
2019-04-16T06:55:20.819Z,16.55
2019-04-16T06:58:12.453Z,16.23
2019-04-16T07:00:58.801Z,15.58
2019-04-16T07:03:49.483Z,18.63
2019-04-16T07:06:37.146Z,16.60
2019-04-16T07:09:40.857Z,20.23
2019-04-16T07:12:10.692Z,16.62
2019-04-16T07:14:40.729Z,17.02
2019-04-16T07:17:10.679Z,17.82
2019-04-16T07:19:42.142Z,16.15
2019-04-16T07:22:12.306Z,19.52
2019-04-16T07:24:42.303Z,18.50
2019-04-16T07:27:12.409Z,16.25
2019-04-16T07:30:06.933Z,17.48
2019-04-16T07:32:50.466Z,20.17
2019-04-16T07:35:39.333Z,17.37
2019-04-16T07:38:46.718Z,16.45
2019-04-16T07:41:31.167Z,16.87
2019-04-16T07:44:18.365Z,17.27
2019-04-16T07:47:19.805Z,19.20
2019-04-16T07:49:59.962Z,19.52
2019-04-16T07:52:35.814Z,18.23
2019-04-16T07:55:16.929Z,13.80
2019-04-16T07:57:46.973Z,18.57
2019-04-16T08:00:17.053Z,17.17
2019-04-16T08:02:47.069Z,19.55
2019-04-16T08:05:17.014Z,15.98
2019-04-16T08:07:49.695Z,17.37
2019-04-16T08:10:18.562Z,19.35
2019-04-16T08:12:52.404Z,17.92
2019-04-16T08:15:22.509Z,15.03
2019-04-16T08:17:52.535Z,18.37
2019-04-16T08:20:22.577Z,17.25
2019-04-16T08:22:55.636Z,17.77
2019-04-16T08:25:33.519Z,19.57
2019-04-16T08:27:59.545Z,17.07
2019-04-16T08:30:34.539Z,16.67
2019-04-16T08:33:01.286Z,18.90
2019-04-16T08:35:31.390Z,17.45
2019-04-16T08:38:01.409Z,18.23
2019-04-16T08:40:31.384Z,17.25
2019-04-16T08:43:01.385Z,17.12
2019-04-16T08:45:31.439Z,15.10
2019-04-16T08:48:01.790Z,18.27
2019-04-16T08:50:31.779Z,17.17
2019-04-16T08:53:01.835Z,18.48
2019-04-16T08:55:31.856Z,17.82
2019-04-16T08:58:05.909Z,17.07
2019-04-16T09:00:34.156Z,16.50
2019-04-16T09:03:04.291Z,17.67
2019-04-16T09:05:34.425Z,15.93
2019-04-16T09:08:15.577Z,16.20
2019-04-16T09:10:45.676Z,15.72
2019-04-16T09:13:18.745Z,18.35
2019-04-16T09:15:48.728Z,15.88
2019-04-16T09:18:40.819Z,14.58
2019-04-16T09:21:11.676Z,16.35
2019-04-16T09:23:45.607Z,17.35
2019-04-16T09:26:26.906Z,15.30
2019-04-16T09:29:15.839Z,15.20
2019-04-16T09:32:17.011Z,17.02
2019-04-16T09:35:11.352Z,15.35
2019-04-16T09:37:57.346Z,17.92
2019-04-16T09:40:49.054Z,17.15
2019-04-16T09:43:21.532Z,16.55
2019-04-16T09:45:51.732Z,15.28
2019-04-16T09:48:21.929Z,16.07
2019-04-16T09:50:52.188Z,17.00
2019-04-16T09:53:32.602Z,17.37
2019-04-16T09:55:54.047Z,17.95
2019-04-16T09:58:25.562Z,15.48
2019-04-16T10:01:07.376Z,15.95
2019-04-16T10:03:39.332Z,16.05
2019-04-16T10:06:09.379Z,15.83
2019-04-16T10:08:44.502Z,17.50
2019-04-16T10:11:11.089Z,17.90
2019-04-16T10:13:41.100Z,16.20
2019-04-16T10:16:14.000Z,18.57
2019-04-16T10:18:42.908Z,14.45
2019-04-16T10:21:13.020Z,15.60
2019-04-16T10:24:13.154Z,16.12
2019-04-16T10:26:43.114Z,15.45
2019-04-16T10:29:15.487Z,14.85
2019-04-16T10:31:45.625Z,13.22
2019-04-16T10:34:15.717Z,15.28
2019-04-16T10:36:46.047Z,16.00
2019-04-16T10:39:36.014Z,13.93
2019-04-16T10:42:17.643Z,16.57
2019-04-16T10:45:27.438Z,14.10
2019-04-16T10:48:16.301Z,17.10
2019-04-16T10:50:56.217Z,15.75
2019-04-16T10:53:40.397Z,18.15
2019-04-16T10:56:35.268Z,14.20
2019-04-16T10:59:22.951Z,15.80
2019-04-16T11:02:11.993Z,13.13
2019-04-16T11:05:04.005Z,14.50
2019-04-16T11:07:34.093Z,13.20
2019-04-16T11:10:04.417Z,14.43
2019-04-16T11:12:34.651Z,17.65
2019-04-16T11:15:04.753Z,14.70
2019-04-16T11:17:34.870Z,14.23
2019-04-16T11:20:06.189Z,14.85
2019-04-16T11:22:36.490Z,14.28
2019-04-16T11:25:06.588Z,14.75
2019-04-16T11:27:36.618Z,15.18
2019-04-16T11:30:09.192Z,13.55
2019-04-16T11:32:40.153Z,12.20
2019-04-16T11:35:13.086Z,14.85
2019-04-16T11:37:44.441Z,10.45
2019-04-16T11:40:13.640Z,11.15
2019-04-16T11:42:43.581Z,16.07
2019-04-16T11:45:14.703Z,13.85
2019-04-16T11:47:47.973Z,12.43
2019-04-16T11:50:16.305Z,12.75
2019-04-16T11:52:46.264Z,14.18
2019-04-16T11:55:16.454Z,12.35
2019-04-16T11:57:46.565Z,10.88
2019-04-16T12:00:22.143Z,13.32
2019-04-16T12:02:59.181Z,12.05
2019-04-16T12:05:44.643Z,14.15
2019-04-16T12:08:36.533Z,11.55
2019-04-16T12:11:27.092Z,13.40
2019-04-16T12:14:08.697Z,10.72
2019-04-16T12:16:55.858Z,14.00
2019-04-16T12:19:44.954Z,12.80
2019-04-16T12:22:45.663Z,13.98
2019-04-16T12:25:33.449Z,16.75
2019-04-16T12:28:31.611Z,13.85
2019-04-16T12:31:26.703Z,12.93
2019-04-16T12:34:13.249Z,13.25
2019-04-16T12:37:00.940Z,12.63
2019-04-16T12:39:43.878Z,12.53
2019-04-16T12:42:42.137Z,14.38
2019-04-16T12:45:32.104Z,13.03
2019-04-16T12:48:33.452Z,13.45
2019-04-16T12:51:40.786Z,13.00
2019-04-16T12:54:13.752Z,12.70
2019-04-16T12:57:02.660Z,15.05
2019-04-16T13:00:00.738Z,11.97
2019-04-16T13:02:48.645Z,12.20
2019-04-16T13:05:44.641Z,24.98
2019-04-16T13:08:32.441Z,12.10
2019-04-16T13:11:19.355Z,9.28
2019-04-16T13:14:14.167Z,13.30
2019-04-16T13:17:09.120Z,10.93
2019-04-16T13:19:44.109Z,15.98
2019-04-16T13:22:15.359Z,11.30
2019-04-16T13:24:52.696Z,14.63
2019-04-16T13:27:25.299Z,12.47
2019-04-16T13:29:55.414Z,12.15
2019-04-16T13:32:27.839Z,12.35
2019-04-16T13:34:58.242Z,13.10
2019-04-16T13:37:30.556Z,10.93
2019-04-16T13:40:09.021Z,10.03
2019-04-16T13:42:39.065Z,8.73
2019-04-16T13:45:37.517Z,9.73
2019-04-16T13:48:17.786Z,15.18
2019-04-16T13:50:53.244Z,11.25
2019-04-16T13:53:40.958Z,13.22
2019-04-16T13:56:51.583Z,11.93
2019-04-16T13:59:24.666Z,15.60
2019-04-16T14:02:21.982Z,13.25
2019-04-16T14:04:52.028Z,13.60
2019-04-16T14:07:25.277Z,13.38
2019-04-16T14:09:53.835Z,15.78
2019-04-16T14:12:40.813Z,14.45
2019-04-16T14:14:55.650Z,13.28
2019-04-16T14:17:26.883Z,15.38
2019-04-16T14:19:56.863Z,15.70
2019-04-16T14:22:26.903Z,13.28
2019-04-16T14:24:56.922Z,12.88
2019-04-16T14:27:27.021Z,11.95
2019-04-16T14:29:59.109Z,13.50
2019-04-16T14:32:28.936Z,14.63
2019-04-16T14:35:00.855Z,12.40
2019-04-16T14:37:30.802Z,13.88
2019-04-16T14:40:14.796Z,11.65
2019-04-16T14:42:44.945Z,13.68
2019-04-16T14:45:23.620Z,56.98
2019-04-16T14:47:53.643Z,13.05
2019-04-16T14:50:24.460Z,16.05
2019-04-16T14:52:54.676Z,15.28
2019-04-16T14:55:58.745Z,13.38
2019-04-16T14:58:33.017Z,10.20
2019-04-16T15:01:27.985Z,13.50
2019-04-16T15:04:25.756Z,12.50
2019-04-16T15:07:09.788Z,14.85
2019-04-16T15:09:51.015Z,11.43
2019-04-16T15:12:38.679Z,10.65
2019-04-16T15:15:31.396Z,12.70
2019-04-16T15:18:11.840Z,12.78
2019-04-16T15:21:03.256Z,12.07
2019-04-16T15:23:37.079Z,11.95
2019-04-16T15:26:44.160Z,16.50
2019-04-16T15:29:45.279Z,11.93
2019-04-16T15:32:34.089Z,12.63
2019-04-16T15:35:05.743Z,10.95
2019-04-16T15:37:59.168Z,10.60
2019-04-16T15:40:47.249Z,9.93
2019-04-16T15:43:38.041Z,9.40
2019-04-16T15:46:34.637Z,10.45
2019-04-16T15:49:24.066Z,9.90
2019-04-16T15:52:18.999Z,9.10
2019-04-16T15:55:00.401Z,9.85
2019-04-16T15:57:58.509Z,12.00
2019-04-16T16:00:45.147Z,9.80
2019-04-16T16:03:30.200Z,9.78
2019-04-16T16:06:10.909Z,8.98
2019-04-16T16:08:48.458Z,9.38
2019-04-16T16:11:21.621Z,8.45
2019-04-16T16:13:51.735Z,8.73
2019-04-16T16:16:21.705Z,12.68
2019-04-16T16:18:51.745Z,12.00
2019-04-16T16:21:21.802Z,12.68
2019-04-16T16:23:51.891Z,9.93
2019-04-16T16:26:21.939Z,10.82
2019-04-16T16:28:51.944Z,10.63
2019-04-16T16:31:21.948Z,9.98
2019-04-16T16:33:52.049Z,12.07
2019-04-16T16:36:22.105Z,11.12
2019-04-16T16:38:52.121Z,13.88
2019-04-16T16:41:22.142Z,10.08
2019-04-16T16:43:52.240Z,12.00
2019-04-16T16:46:57.202Z,10.15
2019-04-16T16:49:27.669Z,10.30
2019-04-16T16:52:19.659Z,10.68
2019-04-16T16:54:50.405Z,8.65
2019-04-16T16:57:23.321Z,8.98
2019-04-16T17:00:10.849Z,8.73
2019-04-16T17:02:53.936Z,10.23
2019-04-16T17:05:30.507Z,8.43
2019-04-16T17:08:00.568Z,8.18
2019-04-16T17:10:30.592Z,9.28
2019-04-16T17:13:00.590Z,7.95
2019-04-16T17:15:30.796Z,9.28
2019-04-16T17:18:01.131Z,9.65
2019-04-16T17:20:31.398Z,9.78
2019-04-16T17:23:01.507Z,9.93
2019-04-16T17:25:36.583Z,8.58
2019-04-16T17:28:03.275Z,8.98
2019-04-16T17:30:33.362Z,9.40
2019-04-16T17:33:03.429Z,9.43
2019-04-16T17:35:33.459Z,10.08
2019-04-16T17:38:05.046Z,7.75
2019-04-16T17:40:58.074Z,9.65
2019-04-16T17:46:17.108Z,10.15
2019-04-16T17:48:58.605Z,9.98
2019-04-16T17:51:42.893Z,10.90
2019-04-16T17:54:27.770Z,8.78
2019-04-16T17:57:15.210Z,9.73
2019-04-16T18:00:07.079Z,9.40
2019-04-16T18:03:15.222Z,11.93
2019-04-16T18:05:51.770Z,8.75
2019-04-16T18:08:44.409Z,10.85
2019-04-16T18:11:23.505Z,10.30
2019-04-16T18:14:11.919Z,11.57
2019-04-16T18:16:54.111Z,12.75
2019-04-16T18:19:50.328Z,10.18
2019-04-16T18:22:26.755Z,12.13
2019-04-16T18:25:14.302Z,10.30
2019-04-16T18:27:51.238Z,12.27
2019-04-16T18:30:46.190Z,12.87
2019-04-16T18:33:32.516Z,16.40
2019-04-16T18:36:23.288Z,14.80
2019-04-16T18:39:21.217Z,13.98
2019-04-16T18:41:58.309Z,15.58
2019-04-16T18:44:45.753Z,15.30
2019-04-16T18:47:34.744Z,13.80
2019-04-16T18:50:08.021Z,14.40
2019-04-16T18:52:38.139Z,17.73
2019-04-16T18:55:08.320Z,15.68
2019-04-16T18:57:39.240Z,16.55
2019-04-16T19:00:28.745Z,17.82
2019-04-16T19:02:58.955Z,16.82
2019-04-16T19:05:29.022Z,15.55
2019-04-16T19:07:59.902Z,19.42
2019-04-16T19:10:30.831Z,17.67
2019-04-16T19:13:00.832Z,20.90
2019-04-16T19:15:31.004Z,24.30
2019-04-16T19:18:17.313Z,21.97
2019-04-16T19:20:32.739Z,26.82
2019-04-16T19:23:03.294Z,23.85
2019-04-16T19:25:33.459Z,27.73
2019-04-16T19:28:06.625Z,25.08
2019-04-16T19:30:35.161Z,24.43
2019-04-16T19:33:05.279Z,28.42
2019-04-16T19:35:35.338Z,27.87
2019-04-16T19:38:06.471Z,25.75
2019-04-16T19:40:37.494Z,28.15
2019-04-16T19:43:07.501Z,30.75
2019-04-16T19:45:44.565Z,27.40
2019-04-16T19:48:35.445Z,31.93
2019-04-16T19:50:57.634Z,28.32
2019-04-16T19:53:28.793Z,28.87
2019-04-16T19:56:00.544Z,28.87
2019-04-16T19:58:31.958Z,30.30
2019-04-16T20:01:03.878Z,28.65
2019-04-16T20:03:35.521Z,27.30
2019-04-16T20:06:06.443Z,28.17
2019-04-16T20:08:39.788Z,29.10
2019-04-16T20:11:11.656Z,28.87
2019-04-16T20:13:41.927Z,31.15
2019-04-16T20:16:14.178Z,32.05
2019-04-16T20:18:51.060Z,33.28
2019-04-16T20:21:19.224Z,26.10
2019-04-16T20:23:50.406Z,30.57
2019-04-16T20:26:23.029Z,27.90
2019-04-16T20:28:54.882Z,31.45
2019-04-16T20:31:26.279Z,34.63
2019-04-16T20:33:57.815Z,25.68
2019-04-16T20:36:30.396Z,26.55
2019-04-16T20:39:07.039Z,30.92
2019-04-16T20:41:39.012Z,31.02
2019-04-16T20:44:10.759Z,28.23
2019-04-16T20:46:43.594Z,24.92
2019-04-16T20:49:16.841Z,27.13
2019-04-16T20:51:49.829Z,25.85
2019-04-16T20:54:22.359Z,28.23
2019-04-16T20:56:53.994Z,26.97
2019-04-16T20:59:25.529Z,26.05
2019-04-16T21:01:58.367Z,26.68
2019-04-16T21:04:30.978Z,25.70
2019-04-16T21:07:04.182Z,28.60
2019-04-16T21:09:36.378Z,24.80
2019-04-16T21:12:12.894Z,27.35
2019-04-16T21:14:41.987Z,27.98
2019-04-16T21:17:15.329Z,28.98
2019-04-16T21:19:48.512Z,22.82
2019-04-16T21:22:18.749Z,26.05
2019-04-16T21:24:48.804Z,25.90
2019-04-16T21:27:18.877Z,25.82
2019-04-16T21:29:49.008Z,23.52
2019-04-16T21:32:37.932Z,24.32
2019-04-16T21:35:14.603Z,24.30
2019-04-16T21:37:53.919Z,21.20
2019-04-16T21:40:24.127Z,25.30
2019-04-16T21:42:54.091Z,24.10
2019-04-16T21:45:24.171Z,25.65
2019-04-16T21:47:55.156Z,27.60
2019-04-16T21:50:25.860Z,23.80
2019-04-16T21:52:56.655Z,27.67
2019-04-16T21:55:26.882Z,25.92
2019-04-16T21:57:56.886Z,20.75
2019-04-16T22:00:44.723Z,23.70
2019-04-16T22:03:15.185Z,21.97
2019-04-16T22:05:48.157Z,22.40
2019-04-16T22:08:17.108Z,23.73
2019-04-16T22:10:47.275Z,23.45
2019-04-16T22:13:19.470Z,23.50
2019-04-16T22:15:49.282Z,24.45
2019-04-16T22:18:19.711Z,24.95
2019-04-16T22:20:49.928Z,22.42
2019-04-16T22:23:20.121Z,23.95
2019-04-16T22:25:50.278Z,26.33
2019-04-16T22:28:20.531Z,26.30
2019-04-16T22:30:51.582Z,30.55
2019-04-16T22:33:22.475Z,23.52
2019-04-16T22:35:52.463Z,24.30
2019-04-16T22:38:22.491Z,24.52
2019-04-16T22:40:58.015Z,22.82
2019-04-16T22:43:49.922Z,24.40
2019-04-16T22:46:23.874Z,25.32
2019-04-16T22:49:01.247Z,24.25
2019-04-16T22:51:31.254Z,26.33
2019-04-16T22:54:01.296Z,23.05
2019-04-16T22:56:51.099Z,24.23
2019-04-16T22:59:21.223Z,23.73
2019-04-16T23:01:53.157Z,22.70
2019-04-16T23:04:26.079Z,25.43
2019-04-16T23:06:54.835Z,24.02
2019-04-16T23:09:27.144Z,24.43
2019-04-16T23:11:57.248Z,24.25
2019-04-16T23:14:27.369Z,22.87
2019-04-16T23:16:57.554Z,25.23
2019-04-16T23:19:27.599Z,27.02
2019-04-16T23:21:58.237Z,23.07
2019-04-16T23:24:28.461Z,22.35
2019-04-16T23:26:58.541Z,26.30
2019-04-16T23:29:28.575Z,28.25
2019-04-16T23:32:01.665Z,26.73
2019-04-16T23:34:31.732Z,24.02
2019-04-16T23:37:01.803Z,25.57
2019-04-16T23:39:33.610Z,21.52
2019-04-16T23:42:04.254Z,24.52
2019-04-16T23:44:54.634Z,23.40
2019-04-16T23:47:43.157Z,21.77
2019-04-16T23:50:44.180Z,25.95
2019-04-16T23:53:16.808Z,23.87
2019-04-16T23:56:05.799Z,21.62
2019-04-16T23:59:02.662Z,28.40
